Time;durP1;ratioP1;P1;durP2;ratioP2;P2;SDS_P1;SDS_P2;PMS_P1;PMS_P2;Temp;Humidity;BMP_temperature;BMP_pressure;BME280_temperature;BME280_humidity;BME280_pressure;Samples;Min_cycle;Max_cycle;Signal;HPM_P1;HPM_P2
2022/01/03 00:02:04;0.00;0.00;0.62;0.00;0.00;0.62;2.90;1.90;;;24.50;30.60;;;;;;2242002;62;20359;-63
2022/01/03 00:04:48;0.00;0.00;0.62;0.00;0.00;0.62;2.40;1.43;;;24.50;30.40;;;;;;2241252;62;20354;-63
2022/01/03 00:07:37;0.00;0.00;0.62;0.00;0.00;0.62;2.30;1.37;;;24.40;30.30;;;;;;2241619;62;20418;-62
2022/01/03 00:10:22;0.00;0.00;0.62;0.00;0.00;0.62;1.67;1.20;;;24.30;29.90;;;;;;2241268;62;20438;-62
2022/01/03 00:13:08;0.00;0.00;0.62;0.00;0.00;0.62;2.03;0.90;;;24.30;29.60;;;;;;2241366;62;20394;-62
2022/01/03 00:15:55;0.00;0.00;0.62;0.00;0.00;0.62;1.97;1.20;;;24.20;29.50;;;;;;2241523;62;20370;-63
2022/01/03 00:18:41;0.00;0.00;0.62;0.00;0.00;0.62;1.97;1.30;;;24.10;29.20;;;;;;2240763;62;20778;-63
2022/01/03 00:21:33;0.00;0.00;0.62;0.00;0.00;0.62;1.60;1.00;;;24.00;29.20;;;;;;2241809;62;20407;-62
2022/01/03 00:24:24;0.00;0.00;0.62;0.00;0.00;0.62;2.03;1.20;;;23.80;29.00;;;;;;2242087;62;20359;-64
2022/01/03 00:27:14;0.00;0.00;0.62;0.00;0.00;0.62;1.90;1.40;;;23.70;29.20;;;;;;2241605;62;20371;-61
2022/01/03 00:30:03;0.00;0.00;0.62;0.00;0.00;0.62;2.33;1.17;;;23.60;29.10;;;;;;2241571;62;20401;-64
2022/01/03 00:32:50;0.00;0.00;0.62;0.00;0.00;0.62;2.17;1.30;;;23.40;29.00;;;;;;2240730;62;20390;-63
2022/01/03 00:35:38;0.00;0.00;0.62;0.00;0.00;0.62;2.87;1.33;;;23.40;29.10;;;;;;2241747;62;20370;-63
2022/01/03 00:38:25;0.00;0.00;0.62;0.00;0.00;0.62;2.10;1.30;;;23.30;29.30;;;;;;2241540;62;20448;-63
2022/01/03 00:41:10;0.00;0.00;0.62;0.00;0.00;0.62;2.27;1.20;;;23.20;29.40;;;;;;2240962;62;20386;-63
2022/01/03 00:43:55;0.00;0.00;0.62;0.00;0.00;0.62;4.33;1.70;;;23.10;29.30;;;;;;2241428;62;20354;-63
2022/01/03 00:46:43;0.00;0.00;0.62;0.00;0.00;0.62;1.83;1.20;;;23.00;29.30;;;;;;2241718;62;20647;-63
2022/01/03 00:49:28;0.00;0.00;0.62;0.00;0.00;0.62;3.80;1.43;;;23.00;29.30;;;;;;2241382;62;20383;-63
2022/01/03 00:52:13;0.00;0.00;0.62;0.00;0.00;0.62;2.60;1.53;;;22.90;29.30;;;;;;2241209;62;20414;-63
2022/01/03 00:54:58;0.00;0.00;0.62;0.00;0.00;0.62;2.37;1.00;;;22.90;29.40;;;;;;2241062;62;20580;-63
2022/01/03 00:57:57;0.00;0.00;0.62;0.00;0.00;0.62;2.57;1.27;;;22.90;29.40;;;;;;2241690;62;20374;-63
2022/01/03 01:00:42;0.00;0.00;0.62;0.00;0.00;0.62;2.27;1.33;;;22.80;29.30;;;;;;2241495;62;20495;-63
2022/01/03 01:03:33;0.00;0.00;0.62;0.00;0.00;0.62;3.30;1.33;;;22.80;29.40;;;;;;2237990;62;20362;-63
2022/01/03 01:06:20;0.00;0.00;0.62;0.00;0.00;0.62;2.23;1.13;;;22.70;29.30;;;;;;2244431;61;20449;-63
2022/01/03 01:09:09;0.00;0.00;0.62;0.00;0.00;0.62;2.57;1.30;;;22.60;29.30;;;;;;2243992;61;20414;-63
2022/01/03 01:11:56;0.00;0.00;0.62;0.00;0.00;0.62;3.80;1.40;;;22.60;29.40;;;;;;2242007;62;20363;-62
2022/01/03 01:14:43;0.00;0.00;0.62;0.00;0.00;0.62;2.70;1.30;;;22.60;29.50;;;;;;2244284;61;20460;-63
2022/01/03 01:17:28;0.00;0.00;0.62;0.00;0.00;0.62;2.50;1.17;;;22.50;29.50;;;;;;2241284;62;20362;-62
2022/01/03 01:20:16;0.00;0.00;0.62;0.00;0.00;0.62;5.70;1.17;;;22.50;29.60;;;;;;2242095;62;20382;-62
2022/01/03 01:23:02;0.00;0.00;0.62;0.00;0.00;0.62;3.23;1.30;;;22.40;29.70;;;;;;2241635;62;20886;-62
2022/01/03 01:28:32;0.00;0.00;0.62;0.00;0.00;0.62;3.07;1.00;;;22.40;29.90;;;;;;2244128;61;20442;-62
2022/01/03 01:31:21;0.00;0.00;0.62;0.00;0.00;0.62;4.73;1.10;;;22.30;29.80;;;;;;2244183;61;20401;-62
2022/01/03 01:34:09;0.00;0.00;0.62;0.00;0.00;0.62;2.83;0.90;;;22.30;30.00;;;;;;2244194;61;20387;-62
2022/01/03 01:36:59;0.00;0.00;0.62;0.00;0.00;0.62;2.03;1.20;;;22.30;30.00;;;;;;2244188;61;20619;-62
2022/01/03 01:39:47;0.00;0.00;0.62;0.00;0.00;0.62;3.80;1.20;;;22.30;30.10;;;;;;2241111;62;20594;-62
2022/01/03 01:42:35;0.00;0.00;0.62;0.00;0.00;0.62;2.17;1.00;;;22.30;30.20;;;;;;2244518;61;20443;-62
2022/01/03 01:45:24;0.00;0.00;0.62;0.00;0.00;0.62;3.83;1.10;;;22.30;30.30;;;;;;2242287;62;20382;-63
2022/01/03 01:48:12;0.00;0.00;0.62;0.00;0.00;0.62;3.53;1.23;;;22.30;30.40;;;;;;2241237;62;20358;-63
2022/01/03 01:50:59;0.00;0.00;0.62;0.00;0.00;0.62;1.90;0.80;;;22.20;30.40;;;;;;2241275;62;20754;-62
2022/01/03 01:53:48;0.00;0.00;0.62;0.00;0.00;0.62;3.27;1.00;;;22.20;30.50;;;;;;2243919;61;20470;-62
2022/01/03 01:56:49;0.00;0.00;0.62;0.00;0.00;0.62;2.30;1.30;;;22.20;30.50;;;;;;2244236;61;20574;-62
2022/01/03 01:59:40;0.00;0.00;0.62;0.00;0.00;0.62;3.40;1.00;;;22.20;30.60;;;;;;2244093;61;20410;-62
2022/01/03 02:02:33;0.00;0.00;0.62;0.00;0.00;0.62;2.97;0.97;;;22.10;30.50;;;;;;2243627;61;20362;-62
2022/01/03 02:05:26;0.00;0.00;0.62;0.00;0.00;0.62;2.67;1.00;;;22.10;30.50;;;;;;2244122;61;20379;-62
2022/01/03 02:08:15;0.00;0.00;0.62;0.00;0.00;0.62;3.90;1.10;;;22.10;30.50;;;;;;2241691;62;20490;-61
2022/01/03 02:11:12;0.00;0.00;0.62;0.00;0.00;0.62;2.90;0.90;;;22.10;30.50;;;;;;2241342;62;20455;-62
2022/01/03 02:13:57;0.00;0.00;0.62;0.00;0.00;0.62;2.00;1.00;;;22.10;30.60;;;;;;2244164;61;20382;-62
2022/01/03 02:16:42;0.00;0.00;0.62;0.00;0.00;0.62;2.50;0.90;;;22.00;30.50;;;;;;2243763;61;20366;-63
2022/01/03 02:19:27;0.00;0.00;0.62;0.00;0.00;0.62;1.90;0.90;;;22.00;30.60;;;;;;2241332;62;20383;-62
2022/01/03 02:22:13;0.00;0.00;0.62;0.00;0.00;0.62;1.97;1.00;;;22.00;30.60;;;;;;2244345;61;20370;-62
2022/01/03 02:25:12;0.00;0.00;0.62;0.00;0.00;0.62;2.87;1.60;;;22.00;30.70;;;;;;2243604;61;20479;-63
2022/01/03 02:27:56;0.00;0.00;0.62;0.00;0.00;0.62;3.10;1.10;;;22.00;30.70;;;;;;2243997;61;20726;-62
2022/01/03 02:30:43;0.00;0.00;0.62;0.00;0.00;0.62;3.77;1.00;;;22.00;30.70;;;;;;2243816;61;20717;-63
2022/01/03 02:33:28;0.00;0.00;0.62;0.00;0.00;0.62;3.73;1.40;;;22.00;30.60;;;;;;2241677;62;20610;-62
2022/01/03 02:36:14;0.00;0.00;0.62;0.00;0.00;0.62;4.80;1.20;;;21.90;30.50;;;;;;2244253;61;20342;-64
2022/01/03 02:39:00;0.00;0.00;0.62;0.00;0.00;0.62;3.70;1.53;;;21.90;30.50;;;;;;2243713;61;20377;-62
2022/01/03 02:41:45;0.00;0.00;0.62;0.00;0.00;0.62;3.23;1.30;;;21.90;30.50;;;;;;2241773;62;20591;-61
2022/01/03 02:44:30;0.00;0.00;0.62;0.00;0.00;0.62;4.90;2.27;;;21.80;31.10;;;;;;2244411;61;20459;-63
2022/01/03 02:47:22;0.00;0.00;0.62;0.00;0.00;0.62;3.00;1.27;;;21.80;30.40;;;;;;2243553;61;20558;-62
2022/01/03 02:50:09;0.00;0.00;0.62;0.00;0.00;0.62;3.27;1.40;;;21.80;30.30;;;;;;2241435;62;20386;-62
2022/01/03 02:52:55;0.00;0.00;0.62;0.00;0.00;0.62;4.00;1.30;;;21.80;30.30;;;;;;2243517;61;20542;-62
2022/01/03 02:55:42;0.00;0.00;0.62;0.00;0.00;0.62;2.63;1.33;;;21.80;30.30;;;;;;2244038;61;20583;-62
2022/01/03 02:58:27;0.00;0.00;0.62;0.00;0.00;0.62;2.37;1.40;;;21.70;30.20;;;;;;2243894;61;20354;-63
2022/01/03 03:01:11;0.00;0.00;0.62;0.00;0.00;0.62;3.07;1.40;;;21.70;30.20;;;;;;2241388;62;20415;-63
2022/01/03 03:04:00;0.00;0.00;0.62;0.00;0.00;0.62;4.40;1.70;;;21.70;30.20;;;;;;2244438;61;20395;-61
2022/01/03 03:06:45;0.00;0.00;0.62;0.00;0.00;0.62;3.37;1.30;;;21.70;30.20;;;;;;2242144;62;20366;-62
2022/01/03 03:09:31;0.00;0.00;0.62;0.00;0.00;0.62;3.63;1.17;;;21.70;30.20;;;;;;2240942;62;20413;-64
2022/01/03 03:12:18;0.00;0.00;0.62;0.00;0.00;0.62;2.67;1.23;;;21.70;30.20;;;;;;2241183;62;20375;-61
2022/01/03 03:15:05;0.00;0.00;0.62;0.00;0.00;0.62;5.77;1.60;;;21.70;30.20;;;;;;2241447;62;20770;-63
2022/01/03 03:17:50;0.00;0.00;0.62;0.00;0.00;0.62;6.40;2.40;;;21.60;30.20;;;;;;2241209;62;20414;-63
2022/01/03 03:20:35;0.00;0.00;0.62;0.00;0.00;0.62;5.33;1.77;;;21.60;30.20;;;;;;2241607;62;20377;-63
2022/01/03 03:23:23;0.00;0.00;0.62;0.00;0.00;0.62;3.17;1.50;;;21.60;30.30;;;;;;2243627;61;20390;-62
2022/01/03 03:26:09;0.00;0.00;0.62;0.00;0.00;0.62;4.50;1.70;;;21.60;30.40;;;;;;2241575;62;20357;-63
2022/01/03 03:28:56;0.00;0.00;0.62;0.00;0.00;0.62;6.73;2.83;;;21.60;30.40;;;;;;2241735;62;20366;-63
2022/01/03 03:31:42;0.00;0.00;0.62;0.00;0.00;0.62;6.43;2.17;;;21.60;30.40;;;;;;2243320;61;20366;-62
2022/01/03 03:34:28;0.00;0.00;0.62;0.00;0.00;0.62;2.70;1.40;;;21.60;30.40;;;;;;2241159;62;20458;-63
2022/01/03 03:37:14;0.00;0.00;0.62;0.00;0.00;0.62;4.23;1.67;;;21.60;30.50;;;;;;2243699;61;20358;-62
2022/01/03 03:39:59;0.00;0.00;0.62;0.00;0.00;0.62;3.63;1.63;;;21.60;30.50;;;;;;2243728;61;20382;-62
2022/01/03 03:42:44;0.00;0.00;0.62;0.00;0.00;0.62;3.47;1.83;;;21.60;30.40;;;;;;2241658;62;20422;-62
2022/01/03 03:45:31;0.00;0.00;0.62;0.00;0.00;0.62;6.03;1.60;;;21.60;30.30;;;;;;2241188;62;20386;-62
2022/01/03 03:48:16;0.00;0.00;0.62;0.00;0.00;0.62;3.57;1.53;;;21.50;30.30;;;;;;2243960;61;20362;-62
2022/01/03 03:51:02;0.00;0.00;0.62;0.00;0.00;0.62;4.53;2.13;;;21.50;30.30;;;;;;2243886;61;20386;-62
2022/01/03 03:53:48;0.00;0.00;0.62;0.00;0.00;0.62;4.00;1.80;;;21.50;30.40;;;;;;2243190;61;20438;-63
2022/01/03 03:56:34;0.00;0.00;0.62;0.00;0.00;0.62;4.63;2.17;;;21.50;30.40;;;;;;2243900;61;20443;-62
2022/01/03 03:59:19;0.00;0.00;0.62;0.00;0.00;0.62;5.70;1.63;;;21.50;30.40;;;;;;2240811;62;20445;-62
2022/01/03 04:02:07;0.00;0.00;0.62;0.00;0.00;0.62;5.40;1.93;;;21.50;30.30;;;;;;2243826;61;20410;-62
2022/01/03 04:04:52;0.00;0.00;0.62;0.00;0.00;0.62;4.80;2.03;;;21.40;30.20;;;;;;2243743;61;20363;-62
2022/01/03 04:07:37;0.00;0.00;0.62;0.00;0.00;0.62;5.73;2.27;;;21.40;30.20;;;;;;2243539;61;20434;-62
2022/01/03 04:10:22;0.00;0.00;0.62;0.00;0.00;0.62;5.30;1.80;;;21.40;30.10;;;;;;2241261;62;20766;-62
2022/01/03 04:13:09;0.00;0.00;0.62;0.00;0.00;0.62;3.43;1.60;;;21.40;30.10;;;;;;2240915;62;20394;-62
2022/01/03 04:15:53;0.00;0.00;0.62;0.00;0.00;0.62;4.27;1.93;;;21.40;30.20;;;;;;2243287;61;20430;-62
2022/01/03 04:18:40;0.00;0.00;0.62;0.00;0.00;0.62;4.60;1.77;;;21.30;30.00;;;;;;2243580;61;20391;-62
2022/01/03 04:21:26;0.00;0.00;0.62;0.00;0.00;0.62;7.80;2.30;;;21.30;30.10;;;;;;2243664;61;20686;-62
2022/01/03 04:24:12;0.00;0.00;0.62;0.00;0.00;0.62;4.53;2.10;;;21.30;30.70;;;;;;2241257;62;20394;-63
2022/01/03 04:26:56;0.00;0.00;0.62;0.00;0.00;0.62;4.13;2.30;;;21.30;30.00;;;;;;2240949;62;20381;-63
2022/01/03 04:29:42;0.00;0.00;0.62;0.00;0.00;0.62;5.23;1.70;;;21.30;30.00;;;;;;2243456;61;20766;-62
2022/01/03 04:32:26;0.00;0.00;0.62;0.00;0.00;0.62;5.60;2.33;;;21.30;30.00;;;;;;2241063;62;20405;-63
2022/01/03 04:35:12;0.00;0.00;0.62;0.00;0.00;0.62;3.93;1.90;;;21.20;30.00;;;;;;2243702;61;20423;-63
2022/01/03 04:37:56;0.00;0.00;0.62;0.00;0.00;0.62;5.50;1.40;;;21.20;30.00;;;;;;2240901;61;20383;-62
2022/01/03 04:40:41;0.00;0.00;0.62;0.00;0.00;0.62;5.83;1.80;;;21.20;30.00;;;;;;2242043;62;20421;-62
2022/01/03 04:43:26;0.00;0.00;0.62;0.00;0.00;0.62;10.37;2.40;;;21.20;30.10;;;;;;2241972;62;20375;-62
2022/01/03 04:46:11;0.00;0.00;0.62;0.00;0.00;0.62;5.23;1.97;;;21.20;30.10;;;;;;2242119;62;20365;-63
2022/01/03 04:48:56;0.00;0.00;0.62;0.00;0.00;0.62;6.80;2.73;;;21.20;30.10;;;;;;2244212;61;20358;-62
2022/01/03 04:51:42;0.00;0.00;0.62;0.00;0.00;0.62;4.53;2.00;;;21.10;30.00;;;;;;2244160;61;20398;-62
2022/01/03 04:54:27;0.00;0.00;0.62;0.00;0.00;0.62;7.13;2.63;;;21.10;30.00;;;;;;2244418;61;20762;-63
2022/01/03 04:57:11;0.00;0.00;0.62;0.00;0.00;0.62;3.50;2.10;;;21.10;30.00;;;;;;2241988;62;20386;-62
2022/01/03 04:59:56;0.00;0.00;0.62;0.00;0.00;0.62;4.47;1.93;;;21.10;30.00;;;;;;2243737;61;20385;-62
2022/01/03 05:02:41;0.00;0.00;0.62;0.00;0.00;0.62;5.27;1.90;;;21.10;30.00;;;;;;2242143;62;20415;-63
2022/01/03 05:05:25;0.00;0.00;0.62;0.00;0.00;0.62;3.70;1.70;;;21.10;30.00;;;;;;2244648;61;20603;-60
2022/01/03 05:08:11;0.00;0.00;0.62;0.00;0.00;0.62;4.33;2.10;;;21.10;30.00;;;;;;2241252;62;20430;-61
2022/01/03 05:11:00;0.00;0.00;0.62;0.00;0.00;0.62;9.37;2.30;;;21.10;30.00;;;;;;2244392;61;20716;-63
2022/01/03 05:13:45;0.00;0.00;0.62;0.00;0.00;0.62;5.33;2.23;;;21.00;29.90;;;;;;2244074;61;20442;-63
2022/01/03 05:16:30;0.00;0.00;0.62;0.00;0.00;0.62;6.17;1.87;;;21.00;30.00;;;;;;2244343;61;20455;-62
2022/01/03 05:19:15;0.00;0.00;0.62;0.00;0.00;0.62;4.90;1.87;;;21.00;30.00;;;;;;2241359;62;20357;-62
2022/01/03 05:21:59;0.00;0.00;0.62;0.00;0.00;0.62;7.80;2.10;;;21.00;30.00;;;;;;2241776;62;20366;-62
2022/01/03 05:24:45;0.00;0.00;0.62;0.00;0.00;0.62;7.57;2.10;;;21.00;30.00;;;;;;2242314;62;20362;-63
2022/01/03 05:27:30;0.00;0.00;0.62;0.00;0.00;0.62;8.17;2.60;;;21.00;30.00;;;;;;2242282;62;20515;-62
2022/01/03 05:30:16;0.00;0.00;0.62;0.00;0.00;0.62;6.70;2.37;;;21.00;30.10;;;;;;2241276;62;20401;-64
2022/01/03 05:33:01;0.00;0.00;0.62;0.00;0.00;0.62;7.33;2.23;;;20.90;30.00;;;;;;2243964;61;20407;-63
2022/01/03 05:35:46;0.00;0.00;0.62;0.00;0.00;0.62;5.13;1.93;;;20.90;30.00;;;;;;2243795;61;20528;-62
2022/01/03 05:38:31;0.00;0.00;0.62;0.00;0.00;0.62;7.37;2.33;;;20.90;30.00;;;;;;2243989;61;20690;-63
2022/01/03 05:41:18;0.00;0.00;0.62;0.00;0.00;0.62;8.43;2.47;;;20.90;30.00;;;;;;2238837;62;20434;-62
2022/01/03 05:44:05;0.00;0.00;0.62;0.00;0.00;0.62;7.40;2.47;;;20.90;30.10;;;;;;2244051;61;20382;-62
2022/01/03 05:46:49;0.00;0.00;0.62;0.00;0.00;0.62;11.47;2.93;;;20.90;30.00;;;;;;2244638;61;20395;-63
2022/01/03 05:49:34;0.00;0.00;0.62;0.00;0.00;0.62;8.30;2.17;;;20.90;30.00;;;;;;2244534;61;20405;-62
2022/01/03 05:52:19;0.00;0.00;0.62;0.00;0.00;0.62;8.00;2.90;;;20.90;30.00;;;;;;2240798;62;20370;-64
2022/01/03 05:55:05;0.00;0.00;0.62;0.00;0.00;0.62;6.77;2.50;;;20.80;29.90;;;;;;2241623;62;20458;-61
2022/01/03 05:57:51;0.00;0.00;0.62;0.00;0.00;0.62;5.10;2.20;;;20.80;29.90;;;;;;2243897;61;20712;-62
2022/01/03 06:00:41;0.00;0.00;0.62;0.00;0.00;0.62;8.60;2.70;;;20.80;29.90;;;;;;2244129;61;20458;-61
2022/01/03 06:03:27;0.00;0.00;0.62;0.00;0.00;0.62;10.47;3.27;;;20.80;29.90;;;;;;2242007;62;20362;-63
2022/01/03 06:08:58;0.00;0.00;0.62;0.00;0.00;0.62;5.13;2.00;;;20.70;29.90;;;;;;2244294;61;20362;-63
2022/01/03 06:11:43;0.00;0.00;0.62;0.00;0.00;0.62;4.63;1.50;;;20.80;30.00;;;;;;2244492;61;20600;-64
2022/01/03 06:14:29;0.00;0.00;0.62;0.00;0.00;0.62;4.60;1.50;;;20.80;30.10;;;;;;2240873;62;20425;-63
2022/01/03 06:17:16;0.00;0.00;0.62;0.00;0.00;0.62;2.87;1.30;;;20.80;30.10;;;;;;2244184;61;20463;-64
2022/01/03 06:20:05;0.00;0.00;0.62;0.00;0.00;0.62;4.43;1.70;;;20.80;30.10;;;;;;2241121;62;20389;-63
2022/01/03 06:22:49;0.00;0.00;0.62;0.00;0.00;0.62;3.97;1.80;;;20.90;30.20;;;;;;2241854;62;20405;-62
2022/01/03 06:25:34;0.00;0.00;0.62;0.00;0.00;0.62;4.13;1.87;;;20.90;30.20;;;;;;2241913;62;20439;-62
2022/01/03 06:28:19;0.00;0.00;0.62;0.00;0.00;0.62;3.37;1.87;;;21.00;30.30;;;;;;2241517;62;20375;-61
2022/01/03 06:31:05;0.00;0.00;0.62;0.00;0.00;0.62;4.53;1.63;;;21.00;30.40;;;;;;2242062;62;20446;-63
2022/01/03 06:33:49;0.00;0.00;0.62;0.00;0.00;0.62;5.87;1.80;;;21.00;30.30;;;;;;2244209;61;20386;-63
2022/01/03 06:36:34;0.00;0.00;0.62;0.00;0.00;0.62;4.77;2.00;;;21.10;30.40;;;;;;2243589;61;20363;-63
2022/01/03 06:39:22;0.00;0.00;0.62;0.00;0.00;0.62;5.20;1.83;;;21.10;30.40;;;;;;2244041;61;20386;-63
2022/01/03 06:42:07;0.00;0.00;0.62;0.00;0.00;0.62;5.37;2.60;;;21.10;30.40;;;;;;2241402;62;20402;-63
2022/01/03 06:44:52;0.00;0.00;0.62;0.00;0.00;0.62;3.57;1.33;;;21.20;30.50;;;;;;2241539;62;20442;-63
2022/01/03 06:47:40;0.00;0.00;0.62;0.00;0.00;0.62;2.97;1.30;;;21.20;30.50;;;;;;2241495;62;20448;-63
2022/01/03 06:50:28;0.00;0.00;0.62;0.00;0.00;0.62;2.87;1.20;;;21.20;30.50;;;;;;2241039;62;20394;-63
2022/01/03 06:53:13;0.00;0.00;0.62;0.00;0.00;0.62;4.20;1.60;;;21.30;30.50;;;;;;2244065;61;20386;-63
2022/01/03 06:55:58;0.00;0.00;0.62;0.00;0.00;0.62;3.77;1.77;;;21.30;30.50;;;;;;2241527;62;20599;-63
2022/01/03 06:58:43;0.00;0.00;0.62;0.00;0.00;0.62;3.80;1.70;;;21.30;30.50;;;;;;2243466;61;20433;-63
2022/01/03 07:01:28;0.00;0.00;0.62;0.00;0.00;0.62;2.50;1.53;;;21.40;30.60;;;;;;2243982;61;20371;-62
2022/01/03 07:04:16;0.00;0.00;0.62;0.00;0.00;0.62;5.93;1.60;;;21.40;30.60;;;;;;2244087;61;20388;-63
2022/01/03 07:07:01;0.00;0.00;0.62;0.00;0.00;0.62;5.50;1.40;;;21.40;30.50;;;;;;2241890;62;20495;-63
2022/01/03 07:09:45;0.00;0.00;0.62;0.00;0.00;0.62;6.27;1.67;;;21.40;30.50;;;;;;2241631;62;20414;-61
2022/01/03 07:12:30;0.00;0.00;0.62;0.00;0.00;0.62;3.20;1.70;;;21.50;30.60;;;;;;2241336;62;20414;-63
2022/01/03 07:21:22;0.00;0.00;0.62;0.00;0.00;0.62;4.50;1.23;;;21.60;30.60;;;;;;2241324;62;20418;-62
2022/01/03 07:24:08;0.00;0.00;0.62;0.00;0.00;0.62;2.90;1.40;;;21.60;30.60;;;;;;2241649;62;20582;-63
2022/01/03 07:26:53;0.00;0.00;0.62;0.00;0.00;0.62;3.00;1.50;;;21.60;30.60;;;;;;2241399;62;20479;-62
2022/01/03 07:29:38;0.00;0.00;0.62;0.00;0.00;0.62;4.10;2.07;;;21.70;30.60;;;;;;2241561;62;20773;-63
2022/01/03 07:32:22;0.00;0.00;0.62;0.00;0.00;0.62;2.90;1.27;;;21.70;30.60;;;;;;2241433;62;20394;-62
2022/01/03 07:35:07;0.00;0.00;0.62;0.00;0.00;0.62;3.50;1.67;;;21.70;30.60;;;;;;2241440;62;20394;-63
2022/01/03 07:37:53;0.00;0.00;0.62;0.00;0.00;0.62;2.80;1.10;;;21.70;30.60;;;;;;2241991;62;20407;-62
2022/01/03 07:40:37;0.00;0.00;0.62;0.00;0.00;0.62;2.70;1.13;;;21.70;30.50;;;;;;2241811;62;20391;-61
2022/01/03 07:43:22;0.00;0.00;0.62;0.00;0.00;0.62;3.10;1.20;;;21.70;30.50;;;;;;2241164;62;20574;-62
2022/01/03 07:46:06;0.00;0.00;0.62;0.00;0.00;0.62;2.73;1.40;;;21.80;30.60;;;;;;2241673;62;20387;-62
2022/01/03 07:48:51;0.00;0.00;0.62;0.00;0.00;0.62;2.23;1.30;;;21.80;30.60;;;;;;2241330;62;20632;-62
2022/01/03 07:51:36;0.00;0.00;0.62;0.00;0.00;0.62;2.73;1.23;;;21.80;30.50;;;;;;2241551;62;20406;-63
2022/01/03 07:54:21;0.00;0.00;0.62;0.00;0.00;0.62;4.13;1.50;;;21.80;30.50;;;;;;2241459;62;20615;-62
2022/01/03 07:57:06;0.00;0.00;0.62;0.00;0.00;0.62;3.07;1.40;;;21.80;30.40;;;;;;2241466;62;20370;-62
2022/01/03 07:59:51;0.00;0.00;0.62;0.00;0.00;0.62;1.93;1.17;;;21.90;30.60;;;;;;2241873;62;20429;-62
2022/01/03 08:02:38;0.00;0.00;0.62;0.00;0.00;0.62;4.23;1.83;;;21.90;30.50;;;;;;2241715;62;20410;-63
2022/01/03 08:05:22;0.00;0.00;0.62;0.00;0.00;0.62;2.87;1.10;;;21.90;30.50;;;;;;2241150;62;20366;-63
2022/01/03 08:08:09;0.00;0.00;0.62;0.00;0.00;0.62;2.90;1.00;;;21.90;30.50;;;;;;2241055;62;20791;-64
2022/01/03 08:10:55;0.00;0.00;0.62;0.00;0.00;0.62;2.10;1.10;;;21.90;30.40;;;;;;2241544;62;20390;-63
2022/01/03 08:13:39;0.00;0.00;0.62;0.00;0.00;0.62;2.80;1.33;;;22.00;30.50;;;;;;2241446;62;20713;-63
2022/01/03 08:16:24;0.00;0.00;0.62;0.00;0.00;0.62;2.57;1.10;;;22.00;30.50;;;;;;2241488;62;20362;-63
2022/01/03 08:19:08;0.00;0.00;0.62;0.00;0.00;0.62;3.00;1.37;;;22.00;30.40;;;;;;2241096;62;20586;-63
2022/01/03 08:21:53;0.00;0.00;0.62;0.00;0.00;0.62;3.00;1.10;;;22.00;30.40;;;;;;2241613;62;20366;-63
2022/01/03 08:24:37;0.00;0.00;0.62;0.00;0.00;0.62;2.23;1.20;;;22.00;30.40;;;;;;2241637;62;20434;-63
2022/01/03 08:27:23;0.00;0.00;0.62;0.00;0.00;0.62;3.50;1.30;;;22.00;30.40;;;;;;2240998;62;20722;-63
2022/01/03 08:30:09;0.00;0.00;0.62;0.00;0.00;0.62;4.30;1.13;;;22.00;30.40;;;;;;2241252;62;20401;-63
2022/01/03 08:32:54;0.00;0.00;0.62;0.00;0.00;0.62;3.33;1.17;;;22.10;30.40;;;;;;2241639;62;20366;-63
2022/01/03 08:35:38;0.00;0.00;0.62;0.00;0.00;0.62;3.60;1.20;;;22.10;30.40;;;;;;2241505;62;20363;-63
2022/01/03 08:38:23;0.00;0.00;0.62;0.00;0.00;0.62;2.13;1.20;;;22.10;30.40;;;;;;2241316;62;20656;-63
2022/01/03 08:41:08;0.00;0.00;0.62;0.00;0.00;0.62;2.97;1.40;;;22.10;30.40;;;;;;2241102;62;20382;-63
2022/01/03 08:43:54;0.00;0.00;0.62;0.00;0.00;0.62;3.53;1.40;;;22.10;30.40;;;;;;2241532;62;20366;-63
2022/01/03 08:46:39;0.00;0.00;0.62;0.00;0.00;0.62;2.70;1.40;;;22.10;30.30;;;;;;2241599;62;20390;-63
2022/01/03 08:49:23;0.00;0.00;0.62;0.00;0.00;0.62;2.30;1.23;;;22.10;30.30;;;;;;2240718;62;20378;-63
2022/01/03 08:52:08;0.00;0.00;0.62;0.00;0.00;0.62;1.80;1.00;;;22.20;30.40;;;;;;2241142;62;20370;-64
2022/01/03 08:54:52;0.00;0.00;0.62;0.00;0.00;0.62;4.43;1.40;;;22.20;30.40;;;;;;2241774;62;20423;-63
2022/01/03 08:57:38;0.00;0.00;0.62;0.00;0.00;0.62;2.80;1.30;;;22.20;30.40;;;;;;2241157;62;20362;-63
2022/01/03 09:00:25;0.00;0.00;0.62;0.00;0.00;0.62;1.80;0.90;;;22.20;30.30;;;;;;2241348;62;20390;-63
2022/01/03 09:03:09;0.00;0.00;0.62;0.00;0.00;0.62;2.57;1.20;;;22.20;30.30;;;;;;2241337;62;20370;-63
2022/01/03 09:05:54;0.00;0.00;0.62;0.00;0.00;0.62;3.43;1.57;;;22.20;30.30;;;;;;2243725;61;20370;-63
2022/01/03 09:08:39;0.00;0.00;0.62;0.00;0.00;0.62;2.00;0.93;;;22.20;30.40;;;;;;2241320;62;20403;-63
2022/01/03 09:11:23;0.00;0.00;0.62;0.00;0.00;0.62;1.87;1.10;;;22.30;30.40;;;;;;2241142;62;20370;-63
2022/01/03 09:14:08;0.00;0.00;0.62;0.00;0.00;0.62;1.47;0.90;;;22.30;30.40;;;;;;2241641;62;20382;-63
2022/01/03 09:16:54;0.00;0.00;0.62;0.00;0.00;0.62;1.77;1.00;;;22.20;30.30;;;;;;2241815;62;20414;-63
2022/01/03 09:19:39;0.00;0.00;0.62;0.00;0.00;0.62;1.90;1.20;;;22.20;30.30;;;;;;2240714;62;20390;-63
2022/01/03 09:22:30;0.00;0.00;0.62;0.00;0.00;0.62;2.23;1.10;;;22.30;30.30;;;;;;2241421;62;20366;-63
2022/01/03 09:31:07;0.00;0.00;0.62;0.00;0.00;0.62;1.90;0.93;;;22.30;30.30;;;;;;2242050;61;20519;-63
2022/01/03 09:33:56;0.00;0.00;0.62;0.00;0.00;0.62;3.10;1.30;;;22.30;30.30;;;;;;2241209;62;20431;-63
2022/01/03 09:36:40;0.00;0.00;0.62;0.00;0.00;0.62;2.77;1.23;;;22.30;30.30;;;;;;2242134;62;20570;-63
2022/01/03 09:39:25;0.00;0.00;0.62;0.00;0.00;0.62;2.63;1.60;;;22.30;30.30;;;;;;2242128;62;20381;-63
2022/01/03 09:42:13;0.00;0.00;0.62;0.00;0.00;0.62;2.47;1.10;;;22.30;30.30;;;;;;2241739;62;20383;-63
2022/01/03 09:45:02;0.00;0.00;0.62;0.00;0.00;0.62;2.03;1.20;;;22.40;30.40;;;;;;2242058;62;20719;-63
2022/01/03 09:47:51;0.00;0.00;0.62;0.00;0.00;0.62;3.00;1.10;;;22.40;30.40;;;;;;2241638;62;20390;-63
2022/01/03 09:50:36;0.00;0.00;0.62;0.00;0.00;0.62;1.80;1.03;;;22.40;30.40;;;;;;2241946;62;20462;-63
2022/01/03 09:53:22;0.00;0.00;0.62;0.00;0.00;0.62;2.10;1.20;;;22.40;30.40;;;;;;2241853;62;20374;-63
2022/01/03 09:56:07;0.00;0.00;0.62;0.00;0.00;0.62;2.37;1.20;;;22.40;30.40;;;;;;2241243;62;20358;-63
2022/01/03 09:58:52;0.00;0.00;0.62;0.00;0.00;0.62;2.23;1.13;;;22.50;30.50;;;;;;2241826;62;20366;-63
2022/01/03 10:01:37;0.00;0.00;0.62;0.00;0.00;0.62;1.90;1.00;;;22.50;30.50;;;;;;2242243;62;20443;-63
2022/01/03 10:04:22;0.00;0.00;0.62;0.00;0.00;0.62;2.80;1.40;;;22.50;30.40;;;;;;2241651;62;20358;-63
2022/01/03 10:07:11;0.00;0.00;0.62;0.00;0.00;0.62;2.37;1.20;;;22.50;30.40;;;;;;2242073;62;20358;-64
2022/01/03 10:09:56;0.00;0.00;0.62;0.00;0.00;0.62;2.67;1.17;;;22.50;30.30;;;;;;2241478;62;20390;-63
2022/01/03 10:12:41;0.00;0.00;0.62;0.00;0.00;0.62;2.80;1.10;;;22.60;30.40;;;;;;2241838;62;20452;-63
2022/01/03 10:15:25;0.00;0.00;0.62;0.00;0.00;0.62;4.33;1.60;;;22.50;30.30;;;;;;2241991;62;20390;-63
2022/01/03 10:18:17;0.00;0.00;0.62;0.00;0.00;0.62;2.73;1.17;;;22.50;30.40;;;;;;2241044;62;20743;-63
2022/01/03 10:21:04;0.00;0.00;0.62;0.00;0.00;0.62;1.93;1.20;;;22.60;30.50;;;;;;2241871;62;20488;-64
2022/01/03 10:23:57;0.00;0.00;0.62;0.00;0.00;0.62;1.67;0.90;;;22.60;30.60;;;;;;2242214;62;20406;-63
2022/01/03 10:26:52;0.00;0.00;0.62;0.00;0.00;0.62;2.33;1.10;;;22.60;30.60;;;;;;2241490;62;20362;-64
2022/01/03 10:29:37;0.00;0.00;0.62;0.00;0.00;0.62;3.73;1.43;;;22.60;30.60;;;;;;2241635;62;20430;-63
2022/01/03 10:32:28;0.00;0.00;0.62;0.00;0.00;0.62;1.90;1.10;;;22.60;30.60;;;;;;2241355;62;20394;-61
2022/01/03 10:35:15;0.00;0.00;0.62;0.00;0.00;0.62;2.87;1.37;;;22.70;30.70;;;;;;2241982;62;20386;-63
2022/01/03 10:38:00;0.00;0.00;0.62;0.00;0.00;0.62;2.07;1.27;;;22.70;30.70;;;;;;2241789;62;20446;-62
2022/01/03 10:40:46;0.00;0.00;0.62;0.00;0.00;0.62;1.90;0.83;;;22.70;30.70;;;;;;2241290;62;20387;-63
2022/01/03 10:43:34;0.00;0.00;0.62;0.00;0.00;0.62;2.63;1.23;;;22.70;30.70;;;;;;2241865;62;20371;-62
2022/01/03 10:46:20;0.00;0.00;0.62;0.00;0.00;0.62;2.23;1.30;;;22.70;30.80;;;;;;2241652;62;20362;-64
2022/01/03 10:49:16;0.00;0.00;0.62;0.00;0.00;0.62;2.17;1.10;;;22.80;30.90;;;;;;2241783;62;20431;-63
2022/01/03 10:52:12;0.00;0.00;0.62;0.00;0.00;0.62;2.37;1.30;;;22.80;30.90;;;;;;2241673;62;20434;-63
2022/01/03 10:55:11;0.00;0.00;0.62;0.00;0.00;0.62;2.27;1.00;;;22.80;30.90;;;;;;2241441;62;20387;-63
2022/01/03 10:57:59;0.00;0.00;0.62;0.00;0.00;0.62;1.40;0.87;;;22.80;30.90;;;;;;2241709;62;20447;-63
2022/01/03 11:00:46;0.00;0.00;0.62;0.00;0.00;0.62;1.60;1.10;;;22.90;31.00;;;;;;2241999;62;20495;-63
2022/01/03 11:03:40;0.00;0.00;0.62;0.00;0.00;0.62;2.37;1.20;;;22.90;31.10;;;;;;2241660;62;20418;-63
2022/01/03 11:12:26;0.00;0.00;0.62;0.00;0.00;0.62;1.80;1.17;;;23.00;30.90;;;;;;2242044;62;20370;-63
2022/01/03 11:15:21;0.00;0.00;0.62;0.00;0.00;0.62;2.63;1.00;;;23.10;30.90;;;;;;2241988;62;20496;-63
2022/01/03 11:18:15;0.00;0.00;0.62;0.00;0.00;0.62;1.67;1.00;;;23.10;30.80;;;;;;2241214;62;20443;-63
2022/01/03 11:21:12;0.00;0.00;0.62;0.00;0.00;0.62;2.40;1.77;;;23.10;30.80;;;;;;2241651;62;20778;-63